Time;durP1;ratioP1;P1;durP2;ratioP2;P2;SDS_P1;SDS_P2;PMS_P1;PMS_P2;Temp;Humidity;BMP_temperature;BMP_pressure;BME280_temperature;BME280_humidity;BME280_pressure;Samples;Min_cycle;Max_cycle;Signal;HPM_P1;HPM_P2
2023/11/24 00:02:13;;;;;;;1.60;0.93;;;;;;;;;;10458344;28;20065;-83
2023/11/24 00:07:17;;;;;;;2.17;0.95;;;;;;;;;;10466985;28;20110;-85
2023/11/24 00:12:21;;;;;;;1.27;0.80;;;;;;;;;;10444497;28;20052;-82
2023/11/24 00:17:25;;;;;;;0.88;0.60;;;;;;;;;;10466981;28;20423;-82
2023/11/24 00:22:28;;;;;;;1.23;0.70;;;;;;;;;;10477913;28;20053;-82
2023/11/24 00:27:33;;;;;;;0.88;0.75;;;;;;;;;;10465250;28;20064;-83
2023/11/24 00:32:36;;;;;;;1.35;0.68;;;;;;;;;;10445229;28;20103;-83
2023/11/24 00:37:40;;;;;;;0.50;0.50;;;;;;;;;;10462624;28;20033;-83
2023/11/24 00:42:45;;;;;;;1.80;0.70;;;;;;;;;;10466189;28;20075;-83
2023/11/24 00:47:48;;;;;;;0.60;0.60;;;;;;;;;;10457800;28;20076;-83
2023/11/24 00:52:52;;;;;;;2.10;0.60;;;;;;;;;;10471672;28;20051;-83
2023/11/24 00:57:57;;;;;;;1.20;0.70;;;;;;;;;;10454733;28;20044;-83
2023/11/24 01:03:00;;;;;;;1.27;1.00;;;;;;;;;;10462067;28;20060;-83
2023/11/24 01:08:04;;;;;;;0.68;0.68;;;;;;;;;;10452386;28;20037;-83
2023/11/24 01:13:09;;;;;;;2.05;0.95;;;;;;;;;;10463327;28;20445;-83
2023/11/24 01:18:12;;;;;;;1.13;0.75;;;;;;;;;;10451539;28;20131;-83
2023/11/24 01:23:15;;;;;;;2.35;1.10;;;;;;;;;;10457573;28;20053;-82
2023/11/24 01:28:20;;;;;;;3.67;1.25;;;;;;;;;;10459902;28;20135;-82
2023/11/24 01:33:23;;;;;;;5.82;1.55;;;;;;;;;;10461876;28;20148;-82
2023/11/24 01:38:28;;;;;;;7.40;1.88;;;;;;;;;;10453526;28;20041;-83
2023/11/24 01:43:32;;;;;;;7.53;1.77;;;;;;;;;;10471495;28;20037;-82
2023/11/24 01:48:37;;;;;;;8.10;1.75;;;;;;;;;;10461221;28;20066;-82
2023/11/24 01:53:41;;;;;;;9.50;1.92;;;;;;;;;;10443457;28;20522;-82
2023/11/24 01:58:46;;;;;;;5.80;1.65;;;;;;;;;;10454977;28;20116;-83
2023/11/24 02:03:50;;;;;;;11.02;2.25;;;;;;;;;;10460516;28;20040;-82
2023/11/24 02:08:53;;;;;;;6.00;1.67;;;;;;;;;;10466823;28;20040;-83
2023/11/24 02:13:58;;;;;;;8.90;2.28;;;;;;;;;;10455821;28;20068;-82
2023/11/24 02:19:01;;;;;;;8.00;2.00;;;;;;;;;;10447405;28;20041;-83
2023/11/24 02:24:06;;;;;;;5.22;1.35;;;;;;;;;;10447578;28;20083;-82
2023/11/24 02:29:10;;;;;;;11.70;2.95;;;;;;;;;;10455073;28;20098;-83
2023/11/24 02:34:13;;;;;;;10.02;2.33;;;;;;;;;;10467203;28;20127;-83
2023/11/24 02:39:18;;;;;;;11.02;3.17;;;;;;;;;;10458408;28;20041;-83
2023/11/24 02:44:22;;;;;;;12.77;2.55;;;;;;;;;;10449585;28;20045;-82
2023/11/24 02:49:26;;;;;;;13.80;2.97;;;;;;;;;;10459146;28;20106;-83
2023/11/24 02:54:30;;;;;;;10.93;2.90;;;;;;;;;;10456841;28;20070;-83
2023/11/24 02:59:34;;;;;;;13.02;3.00;;;;;;;;;;10453754;28;20506;-83
2023/11/24 03:04:37;;;;;;;13.05;2.63;;;;;;;;;;10446424;28;20036;-83
2023/11/24 03:09:42;;;;;;;15.30;3.17;;;;;;;;;;10472050;28;20098;-83
2023/11/24 03:14:47;;;;;;;18.42;3.00;;;;;;;;;;10454823;28;20045;-83
2023/11/24 03:19:50;;;;;;;11.65;2.78;;;;;;;;;;10475985;28;20071;-83
2023/11/24 03:24:56;;;;;;;14.95;2.75;;;;;;;;;;10455346;28;20117;-82
2023/11/24 03:30:00;;;;;;;14.80;2.92;;;;;;;;;;10464895;28;20029;-82
2023/11/24 03:35:03;;;;;;;10.52;2.50;;;;;;;;;;10460778;28;20048;-82
2023/11/24 03:40:09;;;;;;;7.53;2.45;;;;;;;;;;10472146;28;20036;-82
2023/11/24 03:45:13;;;;;;;10.00;2.47;;;;;;;;;;10462706;28;20761;-83
2023/11/24 03:50:17;;;;;;;14.50;3.03;;;;;;;;;;10474187;28;20036;-83
2023/11/24 03:55:21;;;;;;;7.57;1.70;;;;;;;;;;10467080;28;20053;-82
2023/11/24 04:00:25;;;;;;;11.98;3.25;;;;;;;;;;10456447;28;20048;-83
2023/11/24 04:05:28;;;;;;;13.27;2.78;;;;;;;;;;10458889;28;20084;-82
2023/11/24 04:10:33;;;;;;;12.80;3.33;;;;;;;;;;10484879;28;20456;-81
2023/11/24 04:15:37;;;;;;;14.32;2.92;;;;;;;;;;10464527;28;20065;-82
2023/11/24 04:20:41;;;;;;;6.90;1.73;;;;;;;;;;10451541;28;20037;-82
2023/11/24 04:25:47;;;;;;;9.20;2.10;;;;;;;;;;10477169;28;20034;-83
2023/11/24 04:30:52;;;;;;;7.40;1.42;;;;;;;;;;10471315;28;20041;-83
2023/11/24 04:35:56;;;;;;;8.77;1.90;;;;;;;;;;10476168;28;20037;-83
2023/11/24 04:41:01;;;;;;;7.30;1.63;;;;;;;;;;10472528;28;20033;-82
2023/11/24 04:46:05;;;;;;;9.80;2.00;;;;;;;;;;10476801;28;20041;-83
2023/11/24 04:51:08;;;;;;;12.40;2.33;;;;;;;;;;10466289;28;20040;-82
2023/11/24 04:56:13;;;;;;;17.63;3.45;;;;;;;;;;10458807;28;20045;-82
2023/11/24 05:01:18;;;;;;;6.43;1.83;;;;;;;;;;10469805;28;20087;-82
2023/11/24 05:06:21;;;;;;;12.30;3.10;;;;;;;;;;10467459;28;20083;-82
2023/11/24 05:11:25;;;;;;;9.48;2.13;;;;;;;;;;10456293;28;20633;-82
2023/11/24 05:16:29;;;;;;;5.63;1.60;;;;;;;;;;10467431;28;20072;-85
2023/11/24 05:21:33;;;;;;;13.45;3.13;;;;;;;;;;10453990;28;20410;-86
2023/11/24 05:26:38;;;;;;;14.82;2.53;;;;;;;;;;10456191;28;20048;-86
2023/11/24 05:31:42;;;;;;;11.32;1.80;;;;;;;;;;10448881;28;20040;-86
2023/11/24 05:36:45;;;;;;;15.45;2.95;;;;;;;;;;10450877;28;20418;-85
2023/11/24 05:41:50;;;;;;;8.07;2.00;;;;;;;;;;10467822;28;20037;-86
2023/11/24 05:46:54;;;;;;;10.73;2.38;;;;;;;;;;10453395;28;20106;-85
2023/11/24 05:51:57;;;;;;;9.43;2.08;;;;;;;;;;10459565;28;20045;-83
2023/11/24 05:57:06;;;;;;;6.25;1.88;;;;;;;;;;10486689;28;20563;-85
2023/11/24 06:02:09;;;;;;;6.65;1.67;;;;;;;;;;10486520;28;20043;-83
2023/11/24 06:07:22;;;;;;;6.45;1.80;;;;;;;;;;10480367;28;20041;-84
2023/11/24 06:12:29;;;;;;;6.97;1.77;;;;;;;;;;10471532;28;20036;-82
2023/11/24 06:17:33;;;;;;;6.60;1.75;;;;;;;;;;10482509;28;20056;-83
2023/11/24 06:22:37;;;;;;;7.47;1.50;;;;;;;;;;10475019;28;20041;-82
2023/11/24 06:27:41;;;;;;;5.03;1.27;;;;;;;;;;10481303;28;20528;-82
2023/11/24 06:32:44;;;;;;;2.50;1.15;;;;;;;;;;10466858;28;20049;-82
2023/11/24 06:37:50;;;;;;;3.88;1.60;;;;;;;;;;10469670;28;20095;-83
2023/11/24 06:42:54;;;;;;;5.22;1.70;;;;;;;;;;10468238;28;20057;-81
2023/11/24 06:47:58;;;;;;;8.50;1.98;;;;;;;;;;10462831;28;20399;-83
2023/11/24 06:53:04;;;;;;;6.38;1.77;;;;;;;;;;10475525;28;20052;-81
2023/11/24 06:58:09;;;;;;;13.05;2.20;;;;;;;;;;10477488;28;20037;-82
2023/11/24 07:03:16;;;;;;;6.20;1.70;;;;;;;;;;10492311;28;20411;-83
2023/11/24 07:08:20;;;;;;;4.72;1.20;;;;;;;;;;10502528;28;20528;-82
2023/11/24 07:13:27;;;;;;;4.97;2.17;;;;;;;;;;10478412;28;20049;-81
2023/11/24 07:18:32;;;;;;;9.02;2.05;;;;;;;;;;10474548;28;20041;-81
2023/11/24 07:23:37;;;;;;;10.25;2.33;;;;;;;;;;10469842;28;20458;-82
2023/11/24 07:28:44;;;;;;;4.75;1.50;;;;;;;;;;10483362;28;20099;-82
2023/11/24 07:33:48;;;;;;;6.45;2.10;;;;;;;;;;10467010;28;20064;-82
2023/11/24 07:38:54;;;;;;;4.22;1.92;;;;;;;;;;10475609;28;20056;-81
2023/11/24 07:43:59;;;;;;;2.95;1.17;;;;;;;;;;10477846;28;20055;-82
2023/11/24 07:49:03;;;;;;;4.38;1.40;;;;;;;;;;10493851;28;20044;-82
2023/11/24 07:54:07;;;;;;;8.50;1.63;;;;;;;;;;10491313;28;20049;-82
2023/11/24 07:59:12;;;;;;;8.65;2.22;;;;;;;;;;10482035;28;20032;-81
2023/11/24 08:04:16;;;;;;;8.05;1.90;;;;;;;;;;10477991;28;20222;-82
2023/11/24 08:09:20;;;;;;;8.23;2.15;;;;;;;;;;10491236;28;20071;-82
2023/11/24 08:14:25;;;;;;;11.35;2.55;;;;;;;;;;10486487;28;20097;-82
2023/11/24 08:19:31;;;;;;;7.57;1.52;;;;;;;;;;10471416;28;20037;-82
2023/11/24 08:24:35;;;;;;;6.45;1.48;;;;;;;;;;10486655;28;20425;-82
2023/11/24 08:29:40;;;;;;;3.85;1.45;;;;;;;;;;10456290;28;20040;-83
2023/11/24 08:34:43;;;;;;;7.22;2.15;;;;;;;;;;10485022;28;20048;-81
2023/11/24 08:39:47;;;;;;;4.47;1.13;;;;;;;;;;10496165;28;20068;-82
2023/11/24 08:44:52;;;;;;;5.70;1.17;;;;;;;;;;10460970;28;20052;-82
2023/11/24 08:49:55;;;;;;;6.90;1.77;;;;;;;;;;10471656;28;20144;-82
2023/11/24 08:55:00;;;;;;;2.67;0.85;;;;;;;;;;10484833;28;20055;-82
2023/11/24 09:00:11;;;;;;;1.80;0.82;;;;;;;;;;10482273;28;20041;-82
2023/11/24 09:05:14;;;;;;;1.95;0.65;;;;;;;;;;10478530;28;20044;-82
2023/11/24 09:10:24;;;;;;;4.95;1.40;;;;;;;;;;10489156;28;20047;-82
2023/11/24 09:15:34;;;;;;;4.68;1.63;;;;;;;;;;10486598;28;20056;-82
2023/11/24 09:20:38;;;;;;;2.95;1.10;;;;;;;;;;10466594;28;20514;-83
2023/11/24 09:25:44;;;;;;;3.50;1.30;;;;;;;;;;10467150;28;20080;-83
2023/11/24 09:30:49;;;;;;;5.10;1.40;;;;;;;;;;10494008;28;20495;-83
2023/11/24 09:35:53;;;;;;;5.32;1.98;;;;;;;;;;10486851;28;20094;-82
2023/11/24 09:41:03;;;;;;;9.35;1.83;;;;;;;;;;10470697;28;20090;-83
2023/11/24 09:46:12;;;;;;;4.38;1.00;;;;;;;;;;10497400;28;20263;-82
2023/11/24 09:51:19;;;;;;;3.03;1.10;;;;;;;;;;10453593;28;20056;-88
2023/11/24 09:56:23;;;;;;;5.43;1.20;;;;;;;;;;10469955;28;20090;-88
2023/11/24 10:01:31;;;;;;;2.40;0.80;;;;;;;;;;10481067;28;20075;-87
2023/11/24 10:06:39;;;;;;;4.03;1.00;;;;;;;;;;10456444;28;20049;-88
2023/11/24 10:11:42;;;;;;;1.65;0.85;;;;;;;;;;10461546;28;20087;-88
2023/11/24 10:16:55;;;;;;;3.50;1.10;;;;;;;;;;10455356;28;20049;-88
2023/11/24 10:21:58;;;;;;;4.60;1.42;;;;;;;;;;10465087;28;20045;-88
2023/11/24 10:27:20;;;;;;;6.50;1.50;;;;;;;;;;10444923;28;20053;-88
2023/11/24 10:32:33;;;;;;;5.13;1.60;;;;;;;;;;10466614;28;20099;-88
2023/11/24 10:37:38;;;;;;;4.03;1.70;;;;;;;;;;10455891;28;20048;-88
2023/11/24 10:42:47;;;;;;;3.17;1.73;;;;;;;;;;10459438;28;20456;-88
2023/11/24 10:48:09;;;;;;;4.28;1.70;;;;;;;;;;10461592;28;20059;-88
2023/11/24 10:53:26;;;;;;;4.07;1.23;;;;;;;;;;10476431;28;20425;-87
2023/11/24 10:58:34;;;;;;;4.00;1.25;;;;;;;;;;10448934;28;20044;-87
2023/11/24 11:03:39;;;;;;;3.17;1.45;;;;;;;;;;10455345;28;20098;-87
2023/11/24 11:08:56;;;;;;;3.23;1.37;;;;;;;;;;10457795;28;20053;-88
2023/11/24 11:14:03;;;;;;;4.35;1.50;;;;;;;;;;10458478;28;20048;-87
2023/11/24 11:19:31;;;;;;;4.57;1.20;;;;;;;;;;10457438;28;20056;-87
2023/11/24 11:24:38;;;;;;;5.03;1.23;;;;;;;;;;10458599;28;20056;-87
2023/11/24 11:29:43;;;;;;;2.20;1.02;;;;;;;;;;10457364;28;20091;-87
2023/11/24 11:34:51;;;;;;;8.25;1.80;;;;;;;;;;10462325;28;20048;-87
2023/11/24 11:39:57;;;;;;;2.38;1.17;;;;;;;;;;10456326;28;20052;-86
2023/11/24 11:45:09;;;;;;;3.10;1.00;;;;;;;;;;10472145;28;20045;-87
2023/11/24 11:50:24;;;;;;;2.55;0.80;;;;;;;;;;10456111;28;20044;-86
2023/11/24 11:55:29;;;;;;;3.45;1.25;;;;;;;;;;10474686;28;20494;-87
2023/11/24 12:00:32;;;;;;;4.57;1.20;;;;;;;;;;10452712;28;20049;-87
2023/11/24 12:05:38;;;;;;;3.70;1.17;;;;;;;;;;10458013;28;20041;-87
2023/11/24 12:10:43;;;;;;;2.88;0.90;;;;;;;;;;10466412;28;20062;-87
2023/11/24 12:15:48;;;;;;;6.85;1.30;;;;;;;;;;10464100;28;20045;-86
2023/11/24 12:20:53;;;;;;;3.27;1.63;;;;;;;;;;10455888;28;20169;-87
2023/11/24 12:26:00;;;;;;;6.93;1.95;;;;;;;;;;10459072;28;20098;-86
2023/11/24 12:31:04;;;;;;;1.80;1.00;;;;;;;;;;10443157;28;20449;-86
2023/11/24 12:36:13;;;;;;;2.05;0.93;;;;;;;;;;10453870;28;20052;-87
2023/11/24 12:41:17;;;;;;;1.75;1.00;;;;;;;;;;10456475;28;20720;-87
2023/11/24 12:46:21;;;;;;;1.67;0.73;;;;;;;;;;10448757;28;20094;-87
2023/11/24 12:51:26;;;;;;;0.85;0.70;;;;;;;;;;10447423;28;20083;-86
2023/11/24 12:56:29;;;;;;;2.47;0.70;;;;;;;;;;10454209;28;20064;-86
2023/11/24 13:01:39;;;;;;;0.82;0.80;;;;;;;;;;10447878;28;20044;-86
2023/11/24 13:06:43;;;;;;;2.00;0.98;;;;;;;;;;10445133;28;20041;-87
2023/11/24 13:11:49;;;;;;;2.15;1.02;;;;;;;;;;10457096;28;20048;-88
2023/11/24 13:16:52;;;;;;;1.23;0.70;;;;;;;;;;10460072;28;20079;-88
2023/11/24 13:21:57;;;;;;;1.60;1.00;;;;;;;;;;10449519;28;20044;-86
2023/11/24 13:27:03;;;;;;;1.02;0.90;;;;;;;;;;10450281;28;20418;-86
2023/11/24 13:32:10;;;;;;;3.08;1.38;;;;;;;;;;10453518;28;20567;-87
2023/11/24 13:37:20;;;;;;;1.60;0.80;;;;;;;;;;10459413;28;20417;-86
2023/11/24 13:42:24;;;;;;;3.88;1.33;;;;;;;;;;10473575;28;20505;-87
2023/11/24 13:47:35;;;;;;;1.92;1.10;;;;;;;;;;10459705;28;20060;-87
2023/11/24 13:52:41;;;;;;;1.73;1.15;;;;;;;;;;10469130;28;20100;-88
2023/11/24 13:57:50;;;;;;;;;;;;;;;;;;10458414;28;20040;-87
2023/11/24 14:02:53;;;;;;;2.53;0.90;;;;;;;;;;10482985;28;19920;-89
2023/11/24 14:08:00;;;;;;;3.17;1.00;;;;;;;;;;10453829;28;20790;-87
2023/11/24 14:13:05;;;;;;;2.05;1.00;;;;;;;;;;10457636;28;20139;-88
2023/11/24 14:18:11;;;;;;;2.92;0.80;;;;;;;;;;10450059;28;20044;-86
2023/11/24 14:23:16;;;;;;;;;;;;;;;;;;10453247;28;20098;-87
2023/11/24 14:28:22;;;;;;;4.28;1.42;;;;;;;;;;10458622;28;19983;-87
2023/11/24 14:33:26;;;;;;;8.43;2.08;;;;;;;;;;10449699;28;20049;-87
2023/11/24 14:38:39;;;;;;;7.18;1.63;;;;;;;;;;10453542;28;20128;-87
2023/11/24 14:43:43;;;;;;;4.47;1.85;;;;;;;;;;10461367;28;20564;-87
2023/11/24 14:48:51;;;;;;;1.48;1.00;;;;;;;;;;10453203;28;20090;-88
2023/11/24 14:53:56;;;;;;;2.92;1.52;;;;;;;;;;10455768;28;20041;-87
2023/11/24 14:58:59;;;;;;;6.67;1.20;;;;;;;;;;10453848;28;20564;-87
2023/11/24 15:04:13;;;;;;;3.13;1.20;;;;;;;;;;10472239;28;20045;-87
2023/11/24 15:09:25;;;;;;;5.05;1.38;;;;;;;;;;10460539;28;20041;-87
2023/11/24 15:14:32;;;;;;;6.00;1.40;;;;;;;;;;10464302;28;20036;-86
2023/11/24 15:19:36;;;;;;;5.80;1.35;;;;;;;;;;10449327;28;20040;-87
2023/11/24 15:24:41;;;;;;;5.22;1.50;;;;;;;;;;10441196;28;20045;-87
2023/11/24 15:29:45;;;;;;;4.70;1.50;;;;;;;;;;10458172;28;20053;-87
2023/11/24 15:34:48;;;;;;;8.00;2.30;;;;;;;;;;10454437;28;20069;-86
2023/11/24 15:39:58;;;;;;;5.55;1.65;;;;;;;;;;10473988;28;20055;-87
2023/11/24 15:45:20;;;;;;;5.72;1.77;;;;;;;;;;10461385;28;20745;-87
2023/11/24 15:50:29;;;;;;;6.25;1.55;;;;;;;;;;10463238;28;20543;-87
2023/11/24 15:55:37;;;;;;;4.93;1.48;;;;;;;;;;10472716;28;20049;-87
2023/11/24 16:00:45;;;;;;;5.65;1.90;;;;;;;;;;10450207;28;20048;-88
2023/11/24 16:05:49;;;;;;;3.70;1.35;;;;;;;;;;10470330;28;20053;-87
2023/11/24 16:10:56;;;;;;;4.43;1.05;;;;;;;;;;10476173;28;20051;-87
2023/11/24 16:15:59;;;;;;;7.68;2.08;;;;;;;;;;10460827;28;20045;-87
2023/11/24 16:21:03;;;;;;;6.43;1.70;;;;;;;;;;10455915;28;20044;-87
2023/11/24 16:26:09;;;;;;;4.43;1.42;;;;;;;;;;10457330;28;20049;-87
2023/11/24 16:31:13;;;;;;;8.68;2.08;;;;;;;;;;10473353;28;20057;-87
2023/11/24 16:36:18;;;;;;;7.47;2.08;;;;;;;;;;10456984;28;20418;-87
2023/11/24 16:41:23;;;;;;;5.95;1.65;;;;;;;;;;10454288;28;20395;-87
2023/11/24 16:46:28;;;;;;;5.22;1.38;;;;;;;;;;10455273;28;20044;-87
2023/11/24 16:51:34;;;;;;;3.75;1.20;;;;;;;;;;10446775;28;20155;-86
2023/11/24 16:56:39;;;;;;;13.60;4.45;;;;;;;;;;10485347;28;20055;-87
2023/11/24 17:01:43;;;;;;;7.28;3.50;;;;;;;;;;10462912;28;20040;-87
2023/11/24 17:06:49;;;;;;;10.18;4.55;;;;;;;;;;10477769;28;20107;-86
2023/11/24 17:11:55;;;;;;;;;;;;;;;;;;10463371;28;20605;-88
2023/11/24 17:17:00;;;;;;;6.15;2.40;;;;;;;;;;10476833;28;20324;-87
2023/11/24 17:22:04;;;;;;;4.90;2.30;;;;;;;;;;10463311;28;20044;-83
2023/11/24 17:27:08;;;;;;;9.82;3.40;;;;;;;;;;10472699;28;20036;-82
2023/11/24 17:32:12;;;;;;;5.60;2.28;;;;;;;;;;10476066;28;20751;-83
2023/11/24 17:37:15;;;;;;;4.90;1.77;;;;;;;;;;10471696;28;20044;-83
2023/11/24 17:42:20;;;;;;;9.38;1.73;;;;;;;;;;10458032;28;20045;-83
2023/11/24 17:47:23;;;;;;;10.38;3.13;;;;;;;;;;10478302;28;20075;-82
2023/11/24 17:52:27;;;;;;;7.20;2.08;;;;;;;;;;10472344;28;20040;-82
2023/11/24 17:57:31;;;;;;;2.53;1.10;;;;;;;;;;10471560;28;20044;-82
2023/11/24 18:02:35;;;;;;;4.03;1.35;;;;;;;;;;10494142;28;20079;-82
2023/11/24 18:07:38;;;;;;;2.42;1.00;;;;;;;;;;10463456;28;20128;-83
2023/11/24 18:12:43;;;;;;;1.20;0.80;;;;;;;;;;10469804;28;20056;-83
2023/11/24 18:17:46;;;;;;;1.75;0.98;;;;;;;;;;10477089;28;20048;-84
2023/11/24 18:22:51;;;;;;;0.80;0.80;;;;;;;;;;10457229;28;20061;-85
2023/11/24 18:27:56;;;;;;;1.85;0.90;;;;;;;;;;10461222;28;20064;-83
2023/11/24 18:32:59;;;;;;;1.23;0.95;;;;;;;;;;10455277;28;20091;-84
2023/11/24 18:38:04;;;;;;;0.60;0.60;;;;;;;;;;10455737;28;20123;-83
2023/11/24 18:43:08;;;;;;;0.55;0.55;;;;;;;;;;10454371;28;20079;-84
2023/11/24 18:48:12;;;;;;;2.30;0.82;;;;;;;;;;10470751;28;20098;-83
2023/11/24 18:53:15;;;;;;;0.80;0.80;;;;;;;;;;10450702;28;20522;-84
2023/11/24 18:58:20;;;;;;;1.52;1.42;;;;;;;;;;10474684;28;20090;-84
2023/11/24 19:03:24;;;;;;;2.05;1.85;;;;;;;;;;10472259;28;20406;-82
2023/11/24 19:08:27;;;;;;;4.88;2.03;;;;;;;;;;10458914;28;20044;-81
2023/11/24 19:13:33;;;;;;;3.40;1.63;;;;;;;;;;10458894;28;20044;-81
2023/11/24 19:18:36;;;;;;;2.88;1.70;;;;;;;;;;10477161;28;20052;-81
2023/11/24 19:23:39;;;;;;;3.30;1.58;;;;;;;;;;10464390;28;20526;-81
2023/11/24 19:28:50;;;;;;;2.25;1.33;;;;;;;;;;10481691;28;20051;-81
2023/11/24 19:33:55;;;;;;;2.25;1.48;;;;;;;;;;10471737;28;20041;-80
2023/11/24 19:38:59;;;;;;;5.13;1.75;;;;;;;;;;10464862;28;20087;-82
2023/11/24 19:44:05;;;;;;;3.28;1.38;;;;;;;;;;10458442;28;20056;-82
2023/11/24 19:49:09;;;;;;;6.28;1.83;;;;;;;;;;10482061;28;20051;-81
2023/11/24 19:59:36;;;;;;;8.13;2.25;;;;;;;;;;10488047;28;20298;-82
2023/11/24 20:04:41;;;;;;;8.55;2.65;;;;;;;;;;10469237;28;20434;-81
2023/11/24 20:09:44;;;;;;;3.85;1.70;;;;;;;;;;10457661;28;20473;-82
2023/11/24 20:14:49;;;;;;;5.05;1.50;;;;;;;;;;10492873;28;20064;-82
2023/11/24 20:19:53;;;;;;;5.38;1.83;;;;;;;;;;10468096;28;20068;-82
2023/11/24 20:24:57;;;;;;;4.03;1.75;;;;;;;;;;10490810;28;20521;-82
2023/11/24 20:30:03;;;;;;;6.80;1.70;;;;;;;;;;10493963;28;20048;-82
2023/11/24 20:35:07;;;;;;;3.38;1.65;;;;;;;;;;10495679;28;20042;-81
2023/11/24 20:40:12;;;;;;;6.07;2.35;;;;;;;;;;10498899;28;20110;-83
2023/11/24 20:45:16;;;;;;;9.15;2.53;;;;;;;;;;10483972;28;20411;-83
2023/11/24 20:50:21;;;;;;;9.45;2.30;;;;;;;;;;10477534;28;20044;-83
2023/11/24 20:55:26;;;;;;;8.10;1.92;;;;;;;;;;10455822;28;20080;-82
2023/11/24 21:00:31;;;;;;;5.75;2.10;;;;;;;;;;10491041;28;20044;-83
2023/11/24 21:05:36;;;;;;;9.07;2.22;;;;;;;;;;10485001;28;20068;-82
2023/11/24 21:10:39;;;;;;;6.53;1.98;;;;;;;;;;10471316;28;20168;-83
2023/11/24 21:15:45;;;;;;;10.80;2.00;;;;;;;;;;10481012;28;20477;-83
2023/11/24 21:20:48;;;;;;;6.67;1.93;;;;;;;;;;10479716;28;20059;-82
2023/11/24 21:25:53;;;;;;;6.15;2.75;;;;;;;;;;10471597;28;20047;-83
2023/11/24 21:30:57;;;;;;;6.82;2.15;;;;;;;;;;10479650;28;20044;-83
2023/11/24 21:36:02;;;;;;;2.80;1.77;;;;;;;;;;10460756;28;20040;-82
2023/11/24 21:41:05;;;;;;;4.03;1.55;;;;;;;;;;10491780;28;20061;-82
2023/11/24 21:46:18;;;;;;;5.82;3.67;;;;;;;;;;10467345;28;20063;-82
2023/11/24 21:51:21;;;;;;;5.35;2.65;;;;;;;;;;10468155;28;20062;-82
2023/11/24 21:56:25;;;;;;;3.55;2.33;;;;;;;;;;10490536;22;20082;-75
2023/11/24 22:01:30;;;;;;;4.18;1.88;;;;;;;;;;10475519;28;20045;-75
2023/11/24 22:06:35;;;;;;;2.47;1.37;;;;;;;;;;10478840;28;20082;-75
2023/11/24 22:11:39;;;;;;;2.70;1.35;;;;;;;;;;10491163;28;20049;-74
2023/11/24 22:16:44;;;;;;;2.72;1.27;;;;;;;;;;10481997;28;20378;-74
2023/11/24 22:21:49;;;;;;;3.33;1.60;;;;;;;;;;10479243;28;20040;-74
2023/11/24 22:26:53;;;;;;;3.57;1.37;;;;;;;;;;10474163;28;20037;-75
2023/11/24 22:31:58;;;;;;;4.20;1.60;;;;;;;;;;10476442;28;20041;-74
2023/11/24 22:37:01;;;;;;;6.18;2.40;;;;;;;;;;10493102;28;20595;-75
2023/11/24 22:42:05;;;;;;;4.80;1.60;;;;;;;;;;10473804;28;20797;-74
2023/11/24 22:47:10;;;;;;;3.22;1.77;;;;;;;;;;10489800;28;20386;-74
2023/11/24 22:52:13;;;;;;;5.75;2.20;;;;;;;;;;10479373;28;20505;-74
2023/11/24 22:57:17;;;;;;;4.28;1.77;;;;;;;;;;10480033;28;20045;-74
2023/11/24 23:02:22;;;;;;;3.92;1.55;;;;;;;;;;10478155;28;20040;-74
2023/11/24 23:07:26;;;;;;;3.37;1.63;;;;;;;;;;10478470;28;20036;-74
2023/11/24 23:12:29;;;;;;;3.53;1.50;;;;;;;;;;10485437;28;20044;-75
2023/11/24 23:17:34;;;;;;;2.75;1.27;;;;;;;;;;10479891;28;20428;-74
2023/11/24 23:22:38;;;;;;;5.90;2.15;;;;;;;;;;10478956;28;20060;-74
2023/11/24 23:27:41;;;;;;;4.05;1.95;;;;;;;;;;10476414;28;20091;-74
2023/11/24 23:32:46;;;;;;;3.85;1.42;;;;;;;;;;10479628;28;20126;-74
2023/11/24 23:37:50;;;;;;;5.57;1.70;;;;;;;;;;10473821;28;20060;-74
2023/11/24 23:42:53;;;;;;;5.47;1.98;;;;;;;;;;10473144;28;20044;-74
2023/11/24 23:47:58;;;;;;;3.05;1.60;;;;;;;;;;10477886;28;20478;-74
2023/11/24 23:53:02;;;;;;;5.82;2.38;;;;;;;;;;10477315;28;20040;-74
2023/11/24 23:58:05;;;;;;;4.95;1.98;;;;;;;;;;10473912;28;20064;-74
